Decoded Metar for USCC (CHELYABINSK in RUSSIA) (IATA:CEK) | Meteo·Mobile Aviation Weather
aviador You're here:

USCC Decoded Metar

CHELYABINSK in RUSSIA
Report Time2018-08-14 10:30:00
UTC Time2018-08-14 11:00:45
Flight Rules vfr VFR
Wind160° at 10 kt
W.Decomp.*RWY 09: 5.4 kt HW 8.4 kt RCW
W.Rank160° ranks 10
Current wind is above 160° avg. (7.3)
Visibility9999 m
Phenomena:Light Thuderstorm Rain
Clouds:Scattered CB 040 Hf
Expected CloudBase > 3,600 ft AGL from Temp-Dew spread
CeilingNone
Temp25°C (ISA +12)
Dew Point16°C (57% RH)
AAT23.3°C
QNH1009 hPa
Density Alt2,480 ft
Elevation768 ft
Report Wrong Elevation
Raw Report
USCC 141030Z 16005MPS 9999 SCT040CB 25/16 Q1009 R27/000060 TEMPO
-TSRA RMK QFE736=

Extra information for USCC:More info

Metar Taf Metar & Taf Last 4 Metars F.Rules Stats Wind Profile Meteogram Temp Stats Airport Information Weather charts Add Link Nearby VenuesMetar ALERT Operation Metar Decoded Social comments